Time,TemperatureF,DewpointF,PressureIn,WindDirection,WindDirectionDegrees,WindSpeedMPH,WindSpeedGustMPH,Humidity,HourlyPrecipIn,Conditions,Clouds,dailyrainin,SoftwareType,DateUTC
2013-09-25 00:01:00,49.6,44.6,29.83,North,-999,-999.0,-999.0,83,-99.99,,,-99.99,open2300-1.11,2013-09-25 04:01:00,
2013-09-25 00:02:00,49.6,44.6,29.83,North,-999,-999.0,-999.0,83,-99.99,,,-99.99,open2300-1.11,2013-09-25 04:02:00,
2013-09-25 00:03:00,49.6,44.6,29.83,North,-999,-999.0,-999.0,83,-99.99,,,-99.99,open2300-1.11,2013-09-25 04:03:00,
2013-09-25 00:05:00,49.5,44.4,29.83,North,-999,-999.0,-999.0,83,-99.99,,,-99.99,open2300-1.11,2013-09-25 04:05:00,
2013-09-25 00:10:00,49.3,44.6,29.83,North,-999,-999.0,-999.0,84,-99.99,,,-99.99,open2300-1.11,2013-09-25 04:10:00,
2013-09-25 00:11:00,49.3,44.6,29.83,North,-999,-999.0,-999.0,84,-99.99,,,-99.99,open2300-1.11,2013-09-25 04:11:00,
2013-09-25 00:16:00,49.3,44.6,29.84,North,-999,-999.0,-999.0,84,-99.99,,,-99.99,open2300-1.11,2013-09-25 04:16:00,
2013-09-25 00:21:00,48.9,44.2,29.84,North,-999,-999.0,-999.0,84,-99.99,,,-99.99,open2300-1.11,2013-09-25 04:21:00,
2013-09-25 00:27:00,48.9,44.2,29.84,North,-999,-999.0,-999.0,84,-99.99,,,-99.99,open2300-1.11,2013-09-25 04:27:00,
2013-09-25 00:32:00,48.7,44.4,29.83,North,-999,-999.0,-999.0,85,-99.99,,,-99.99,open2300-1.11,2013-09-25 04:32:00,
2013-09-25 00:37:00,48.7,44.4,29.83,North,-999,-999.0,-999.0,85,-99.99,,,-99.99,open2300-1.11,2013-09-25 04:37:00,
2013-09-25 00:42:00,48.7,44.7,29.84,North,-999,-999.0,-999.0,86,-99.99,,,-99.99,open2300-1.11,2013-09-25 04:42:00,
2013-09-25 00:49:00,48.7,44.7,29.83,North,-999,-999.0,-999.0,86,-99.99,,,-99.99,open2300-1.11,2013-09-25 04:49:00,
2013-09-25 00:54:00,48.7,44.7,29.83,North,-999,-999.0,-999.0,86,-99.99,,,-99.99,open2300-1.11,2013-09-25 04:54:00,
2013-09-25 01:00:00,48.9,44.6,29.83,North,-999,-999.0,-999.0,85,-99.99,,,-99.99,open2300-1.11,2013-09-25 05:00:00,
2013-09-25 01:05:00,48.9,44.6,29.84,North,-999,-999.0,-999.0,85,-99.99,,,-99.99,open2300-1.11,2013-09-25 05:05:00,
2013-09-25 01:10:00,49.1,44.4,29.83,North,-999,-999.0,-999.0,84,-99.99,,,-99.99,open2300-1.11,2013-09-25 05:10:00,
2013-09-25 01:15:00,49.1,44.4,29.83,North,-999,-999.0,-999.0,84,-99.99,,,-99.99,open2300-1.11,2013-09-25 05:15:00,
2013-09-25 01:21:00,49.1,44.4,29.84,North,-999,-999.0,-999.0,84,-99.99,,,-99.99,open2300-1.11,2013-09-25 05:21:00,
2013-09-25 01:26:00,49.1,44.4,29.84,North,-999,-999.0,-999.0,84,-99.99,,,-99.99,open2300-1.11,2013-09-25 05:26:00,
2013-09-25 01:31:00,49.1,44.4,29.84,North,-999,-999.0,-999.0,84,-99.99,,,-99.99,open2300-1.11,2013-09-25 05:31:00,
2013-09-25 01:36:00,48.9,44.2,29.84,North,-999,-999.0,-999.0,84,-99.99,,,-99.99,open2300-1.11,2013-09-25 05:36:00,
2013-09-25 01:41:00,48.9,43.9,29.84,North,-999,-999.0,-999.0,83,-99.99,,,-99.99,open2300-1.11,2013-09-25 05:41:00,
2013-09-25 01:47:00,48.9,43.9,29.84,North,-999,-999.0,-999.0,83,-99.99,,,-99.99,open2300-1.11,2013-09-25 05:47:00,
2013-09-25 01:52:00,48.9,43.9,29.84,North,-999,-999.0,-999.0,83,-99.99,,,-99.99,open2300-1.11,2013-09-25 05:52:00,
2013-09-25 01:57:00,48.7,43.8,29.84,North,-999,-999.0,-999.0,83,-99.99,,,-99.99,open2300-1.11,2013-09-25 05:57:00,
2013-09-25 02:02:00,48.9,43.9,29.84,North,-999,-999.0,-999.0,83,-99.99,,,-99.99,open2300-1.11,2013-09-25 06:02:00,
2013-09-25 02:08:00,49.1,44.1,29.84,North,-999,-999.0,-999.0,83,-99.99,,,-99.99,open2300-1.11,2013-09-25 06:08:00,
2013-09-25 02:13:00,48.9,43.6,29.83,North,-999,-999.0,-999.0,82,-99.99,,,-99.99,open2300-1.11,2013-09-25 06:13:00,
2013-09-25 02:18:00,48.9,43.6,29.83,North,-999,-999.0,-999.0,82,-99.99,,,-99.99,open2300-1.11,2013-09-25 06:18:00,
2013-09-25 02:23:00,48.7,43.8,29.83,North,-999,-999.0,-999.0,83,-99.99,,,-99.99,open2300-1.11,2013-09-25 06:23:00,
2013-09-25 02:29:00,48.6,43.2,29.84,North,-999,-999.0,-999.0,82,-99.99,,,-99.99,open2300-1.11,2013-09-25 06:29:00,
2013-09-25 02:34:00,48.4,43.1,29.84,North,-999,-999.0,-999.0,82,-99.99,,,-99.99,open2300-1.11,2013-09-25 06:34:00,
2013-09-25 02:39:00,48.2,43.2,29.84,North,-999,-999.0,-999.0,83,-99.99,,,-99.99,open2300-1.11,2013-09-25 06:39:00,
2013-09-25 02:45:00,48.0,43.0,29.83,North,-999,-999.0,-999.0,83,-99.99,,,-99.99,open2300-1.11,2013-09-25 06:45:00,
2013-09-25 02:50:00,47.8,42.9,29.84,North,-999,-999.0,-999.0,83,-99.99,,,-99.99,open2300-1.11,2013-09-25 06:50:00,
2013-09-25 02:55:00,47.7,42.7,29.84,North,-999,-999.0,-999.0,83,-99.99,,,-99.99,open2300-1.11,2013-09-25 06:55:00,
2013-09-25 03:00:00,47.3,42.4,29.84,North,-999,-999.0,-999.0,83,-99.99,,,-99.99,open2300-1.11,2013-09-25 07:00:00,
2013-09-25 03:06:00,47.1,42.2,29.84,North,-999,-999.0,-999.0,83,-99.99,,,-99.99,open2300-1.11,2013-09-25 07:06:00,
2013-09-25 03:11:00,47.1,42.2,29.83,North,-999,-999.0,-999.0,83,-99.99,,,-99.99,open2300-1.11,2013-09-25 07:11:00,
2013-09-25 03:16:00,46.9,42.4,29.83,North,-999,-999.0,-999.0,84,-99.99,,,-99.99,open2300-1.11,2013-09-25 07:16:00,
2013-09-25 03:21:00,46.6,42.0,29.83,North,-999,-999.0,-999.0,84,-99.99,,,-99.99,open2300-1.11,2013-09-25 07:21:00,
2013-09-25 03:26:00,46.6,42.0,29.83,North,-999,-999.0,-999.0,84,-99.99,,,-99.99,open2300-1.11,2013-09-25 07:26:00,
2013-09-25 03:32:00,46.4,42.2,29.83,North,-999,-999.0,-999.0,85,-99.99,,,-99.99,open2300-1.11,2013-09-25 07:32:00,
2013-09-25 03:37:00,46.2,42.0,29.84,North,-999,-999.0,-999.0,85,-99.99,,,-99.99,open2300-1.11,2013-09-25 07:37:00,
2013-09-25 03:42:00,46.2,42.0,29.84,North,-999,-999.0,-999.0,85,-99.99,,,-99.99,open2300-1.11,2013-09-25 07:42:00,
2013-09-25 03:48:00,46.0,41.8,29.84,North,-999,-999.0,-999.0,85,-99.99,,,-99.99,open2300-1.11,2013-09-25 07:48:00,
2013-09-25 03:53:00,45.7,41.8,29.84,North,-999,-999.0,-999.0,86,-99.99,,,-99.99,open2300-1.11,2013-09-25 07:53:00,
2013-09-25 03:58:00,45.7,41.8,29.85,North,-999,-999.0,-999.0,86,-99.99,,,-99.99,open2300-1.11,2013-09-25 07:58:00,
2013-09-25 04:03:00,45.5,41.6,29.84,North,-999,-999.0,-999.0,86,-99.99,,,-99.99,open2300-1.11,2013-09-25 08:03:00,
2013-09-25 04:08:00,45.3,41.4,29.84,North,-999,-999.0,-999.0,86,-99.99,,,-99.99,open2300-1.11,2013-09-25 08:08:00,
2013-09-25 04:14:00,45.1,41.2,29.84,North,-999,-999.0,-999.0,86,-99.99,,,-99.99,open2300-1.11,2013-09-25 08:14:00,
2013-09-25 04:19:00,45.1,41.5,29.84,North,-999,-999.0,-999.0,87,-99.99,,,-99.99,open2300-1.11,2013-09-25 08:19:00,
2013-09-25 04:24:00,44.8,40.9,29.84,North,-999,-999.0,-999.0,86,-99.99,,,-99.99,open2300-1.11,2013-09-25 08:24:00,
2013-09-25 04:30:00,44.4,40.8,29.84,North,-999,-999.0,-999.0,87,-99.99,,,-99.99,open2300-1.11,2013-09-25 08:30:00,
2013-09-25 04:35:00,44.4,40.8,29.84,North,-999,-999.0,-999.0,87,-99.99,,,-99.99,open2300-1.11,2013-09-25 08:35:00,
2013-09-25 04:40:00,44.2,40.6,29.84,North,-999,-999.0,-999.0,87,-99.99,,,-99.99,open2300-1.11,2013-09-25 08:40:00,
2013-09-25 04:45:00,43.9,40.3,29.84,North,-999,-999.0,-999.0,87,-99.99,,,-99.99,open2300-1.11,2013-09-25 08:45:00,
2013-09-25 04:51:00,43.9,40.3,29.84,North,-999,-999.0,-999.0,87,-99.99,,,-99.99,open2300-1.11,2013-09-25 08:51:00,
2013-09-25 04:56:00,43.9,40.6,29.84,North,-999,-999.0,-999.0,88,-99.99,,,-99.99,open2300-1.11,2013-09-25 08:56:00,
2013-09-25 05:01:00,43.9,40.6,29.84,North,-999,-999.0,-999.0,88,-99.99,,,-99.99,open2300-1.11,2013-09-25 09:01:00,
2013-09-25 05:06:00,43.7,40.4,29.84,North,-999,-999.0,-999.0,88,-99.99,,,-99.99,open2300-1.11,2013-09-25 09:06:00,
2013-09-25 05:11:00,43.7,40.4,29.84,North,-999,-999.0,-999.0,88,-99.99,,,-99.99,open2300-1.11,2013-09-25 09:11:00,
2013-09-25 05:17:00,43.9,40.9,29.84,North,-999,-999.0,-999.0,89,-99.99,,,-99.99,open2300-1.11,2013-09-25 09:17:00,
2013-09-25 05:22:00,44.1,41.4,29.84,North,-999,-999.0,-999.0,90,-99.99,,,-99.99,open2300-1.11,2013-09-25 09:22:00,
2013-09-25 05:27:00,44.2,41.5,29.84,North,-999,-999.0,-999.0,90,-99.99,,,-99.99,open2300-1.11,2013-09-25 09:27:00,
2013-09-25 05:32:00,44.2,41.5,29.84,North,-999,-999.0,-999.0,90,-99.99,,,-99.99,open2300-1.11,2013-09-25 09:32:00,
2013-09-25 05:38:00,44.2,41.5,29.84,North,-999,-999.0,-999.0,90,-99.99,,,-99.99,open2300-1.11,2013-09-25 09:38:00,
2013-09-25 05:43:00,44.1,41.4,29.84,North,-999,-999.0,-999.0,90,-99.99,,,-99.99,open2300-1.11,2013-09-25 09:43:00,
2013-09-25 05:48:00,43.9,41.2,29.84,North,-999,-999.0,-999.0,90,-99.99,,,-99.99,open2300-1.11,2013-09-25 09:48:00,
2013-09-25 05:53:00,43.9,41.2,29.84,North,-999,-999.0,-999.0,90,-99.99,,,-99.99,open2300-1.11,2013-09-25 09:53:00,
2013-09-25 05:59:00,43.7,40.7,29.85,North,-999,-999.0,-999.0,89,-99.99,,,-99.99,open2300-1.11,2013-09-25 09:59:00,
2013-09-25 06:04:00,43.5,40.5,29.85,North,-999,-999.0,-999.0,89,-99.99,,,-99.99,open2300-1.11,2013-09-25 10:04:00,
2013-09-25 06:09:00,43.5,40.5,29.85,North,-999,-999.0,-999.0,89,-99.99,,,-99.99,open2300-1.11,2013-09-25 10:09:00,
2013-09-25 06:14:00,43.5,40.5,29.85,North,-999,-999.0,-999.0,89,-99.99,,,-99.99,open2300-1.11,2013-09-25 10:14:00,
2013-09-25 06:19:00,43.2,40.5,29.85,North,-999,-999.0,-999.0,90,-99.99,,,-99.99,open2300-1.11,2013-09-25 10:19:00,
2013-09-25 06:25:00,43.2,40.5,29.85,North,-999,-999.0,-999.0,90,-99.99,,,-99.99,open2300-1.11,2013-09-25 10:25:00,
2013-09-25 06:30:00,43.2,40.5,29.85,North,-999,-999.0,-999.0,90,-99.99,,,-99.99,open2300-1.11,2013-09-25 10:30:00,
2013-09-25 06:35:00,43.2,40.5,29.85,North,-999,-999.0,-999.0,90,-99.99,,,-99.99,open2300-1.11,2013-09-25 10:35:00,
2013-09-25 06:40:00,43.2,40.5,29.86,North,-999,-999.0,-999.0,90,-99.99,,,-99.99,open2300-1.11,2013-09-25 10:40:00,
2013-09-25 06:46:00,43.2,40.5,29.85,North,-999,-999.0,-999.0,90,-99.99,,,-99.99,open2300-1.11,2013-09-25 10:46:00,
2013-09-25 06:51:00,43.0,40.3,29.85,North,-999,-999.0,-999.0,90,-99.99,,,-99.99,open2300-1.11,2013-09-25 10:51:00,
2013-09-25 06:56:00,42.6,39.9,29.85,North,-999,-999.0,-999.0,90,-99.99,,,-99.99,open2300-1.11,2013-09-25 10:56:00,
2013-09-25 07:01:00,42.6,39.9,29.85,North,-999,-999.0,-999.0,90,-99.99,,,-99.99,open2300-1.11,2013-09-25 11:01:00,
2013-09-25 07:07:00,42.4,39.7,29.85,North,-999,-999.0,-999.0,90,-99.99,,,-99.99,open2300-1.11,2013-09-25 11:07:00,
2013-09-25 07:12:00,42.4,39.7,29.85,North,-999,-999.0,-999.0,90,-99.99,,,-99.99,open2300-1.11,2013-09-25 11:12:00,
2013-09-25 07:17:00,42.4,39.7,29.85,North,-999,-999.0,-999.0,90,-99.99,,,-99.99,open2300-1.11,2013-09-25 11:17:00,
2013-09-25 07:22:00,42.6,39.9,29.85,North,-999,-999.0,-999.0,90,-99.99,,,-99.99,open2300-1.11,2013-09-25 11:22:00,
2013-09-25 07:28:00,43.0,40.5,29.86,North,-999,-999.0,-999.0,91,-99.99,,,-99.99,open2300-1.11,2013-09-25 11:28:00,
2013-09-25 07:33:00,43.5,41.1,29.85,North,-999,-999.0,-999.0,91,-99.99,,,-99.99,open2300-1.11,2013-09-25 11:33:00,
2013-09-25 07:38:00,43.9,41.7,29.85,North,-999,-999.0,-999.0,92,-99.99,,,-99.99,open2300-1.11,2013-09-25 11:38:00,
2013-09-25 07:43:00,44.8,42.6,29.86,North,-999,-999.0,-999.0,92,-99.99,,,-99.99,open2300-1.11,2013-09-25 11:43:00,
2013-09-25 07:48:00,45.1,43.0,29.86,North,-999,-999.0,-999.0,92,-99.99,,,-99.99,open2300-1.11,2013-09-25 11:48:00,
2013-09-25 07:54:00,46.0,43.9,29.86,North,-999,-999.0,-999.0,92,-99.99,,,-99.99,open2300-1.11,2013-09-25 11:54:00,
2013-09-25 07:59:00,46.6,44.2,29.86,North,-999,-999.0,-999.0,91,-99.99,,,-99.99,open2300-1.11,2013-09-25 11:59:00,
2013-09-25 08:04:00,47.5,45.0,29.86,North,-999,-999.0,-999.0,91,-99.99,,,-99.99,open2300-1.11,2013-09-25 12:04:00,
2013-09-25 08:09:00,48.2,46.0,29.86,North,-999,-999.0,-999.0,92,-99.99,,,-99.99,open2300-1.11,2013-09-25 12:09:00,
2013-09-25 08:15:00,50.7,48.7,29.85,North,-999,-999.0,-999.0,93,-99.99,,,-99.99,open2300-1.11,2013-09-25 12:15:00,
2013-09-25 08:20:00,54.0,51.1,29.85,North,-999,-999.0,-999.0,90,-99.99,,,-99.99,open2300-1.11,2013-09-25 12:20:00,
2013-09-25 08:25:00,57.2,52.0,29.85,North,-999,-999.0,-999.0,83,-99.99,,,-99.99,open2300-1.11,2013-09-25 12:25:00,
2013-09-25 08:27:00,58.5,52.0,29.85,North,-999,-999.0,-999.0,79,-99.99,,,-99.99,open2300-1.11,2013-09-25 12:27:00,
2013-09-25 08:32:00,61.2,51.8,29.86,North,-999,-999.0,-999.0,71,-99.99,,,-99.99,open2300-1.11,2013-09-25 12:32:00,
2013-09-25 08:38:00,61.9,50.8,29.86,North,-999,-999.0,-999.0,67,-99.99,,,-99.99,open2300-1.11,2013-09-25 12:38:00,
2013-09-25 08:43:00,62.1,50.6,29.86,North,-999,-999.0,-999.0,66,-99.99,,,-99.99,open2300-1.11,2013-09-25 12:43:00,
2013-09-25 08:48:00,62.2,50.7,29.86,North,-999,-999.0,-999.0,66,-99.99,,,-99.99,open2300-1.11,2013-09-25 12:48:00,
2013-09-25 08:53:00,62.2,49.5,29.86,North,-999,-999.0,-999.0,63,-99.99,,,-99.99,open2300-1.11,2013-09-25 12:53:00,
2013-09-25 08:59:00,61.9,49.2,29.86,North,-999,-999.0,-999.0,63,-99.99,,,-99.99,open2300-1.11,2013-09-25 12:59:00,
2013-09-25 09:04:00,61.5,48.8,29.86,North,-999,-999.0,-999.0,63,-99.99,,,-99.99,open2300-1.11,2013-09-25 13:04:00,
2013-09-25 09:09:00,61.5,48.8,29.86,North,-999,-999.0,-999.0,63,-99.99,,,-99.99,open2300-1.11,2013-09-25 13:09:00,
2013-09-25 09:14:00,61.3,49.1,29.86,North,-999,-999.0,-999.0,64,-99.99,,,-99.99,open2300-1.11,2013-09-25 13:14:00,
2013-09-25 09:20:00,60.6,48.4,29.86,North,-999,-999.0,-999.0,64,-99.99,,,-99.99,open2300-1.11,2013-09-25 13:20:00,
2013-09-25 09:25:00,60.1,48.3,29.87,North,-999,-999.0,-999.0,65,-99.99,,,-99.99,open2300-1.11,2013-09-25 13:25:00,
2013-09-25 09:30:00,59.7,47.9,29.87,North,-999,-999.0,-999.0,65,-99.99,,,-99.99,open2300-1.11,2013-09-25 13:30:00,
2013-09-25 09:35:00,60.1,49.1,29.86,North,-999,-999.0,-999.0,67,-99.99,,,-99.99,open2300-1.11,2013-09-25 13:35:00,
2013-09-25 09:40:00,63.7,51.7,29.87,North,-999,-999.0,-999.0,65,-99.99,,,-99.99,open2300-1.11,2013-09-25 13:40:00,
2013-09-25 09:46:00,67.8,54.3,29.86,North,-999,-999.0,-999.0,62,-99.99,,,-99.99,open2300-1.11,2013-09-25 13:46:00,
2013-09-25 09:51:00,72.7,55.5,29.86,North,-999,-999.0,-999.0,55,-99.99,,,-99.99,open2300-1.11,2013-09-25 13:51:00,
2013-09-25 09:56:00,75.4,56.6,29.86,North,-999,-999.0,-999.0,52,-99.99,,,-99.99,open2300-1.11,2013-09-25 13:56:00,
2013-09-25 10:01:00,77.2,55.3,29.86,North,-999,-999.0,-999.0,47,-99.99,,,-99.99,open2300-1.11,2013-09-25 14:01:00,
2013-09-25 10:07:00,79.5,55.6,29.86,North,-999,-999.0,-999.0,44,-99.99,,,-99.99,open2300-1.11,2013-09-25 14:07:00,
2013-09-25 10:12:00,81.1,56.5,29.86,North,-999,-999.0,-999.0,43,-99.99,,,-99.99,open2300-1.11,2013-09-25 14:12:00,
2013-09-25 10:17:00,82.9,56.2,29.86,North,-999,-999.0,-999.0,40,-99.99,,,-99.99,open2300-1.11,2013-09-25 14:17:00,
2013-09-25 10:22:00,83.7,55.3,29.86,North,-999,-999.0,-999.0,38,-99.99,,,-99.99,open2300-1.11,2013-09-25 14:22:00,
2013-09-25 10:27:00,83.5,55.2,29.86,North,-999,-999.0,-999.0,38,-99.99,,,-99.99,open2300-1.11,2013-09-25 14:27:00,
2013-09-25 10:33:00,83.3,54.2,29.85,North,-999,-999.0,-999.0,37,-99.99,,,-99.99,open2300-1.11,2013-09-25 14:33:00,
2013-09-25 10:38:00,83.5,54.4,29.86,North,-999,-999.0,-999.0,37,-99.99,,,-99.99,open2300-1.11,2013-09-25 14:38:00,
2013-09-25 10:43:00,81.7,52.8,29.86,North,-999,-999.0,-999.0,37,-99.99,,,-99.99,open2300-1.11,2013-09-25 14:43:00,
2013-09-25 10:48:00,79.0,51.9,29.85,North,-999,-999.0,-999.0,39,-99.99,,,-99.99,open2300-1.11,2013-09-25 14:48:00,
2013-09-25 10:54:00,74.8,49.5,29.85,North,-999,-999.0,-999.0,41,-99.99,,,-99.99,open2300-1.11,2013-09-25 14:54:00,
2013-09-25 10:59:00,72.3,48.5,29.85,North,-999,-999.0,-999.0,43,-99.99,,,-99.99,open2300-1.11,2013-09-25 14:59:00,
2013-09-25 11:04:00,70.2,47.7,29.85,North,-999,-999.0,-999.0,45,-99.99,,,-99.99,open2300-1.11,2013-09-25 15:04:00,
2013-09-25 11:09:00,69.1,47.9,29.85,North,-999,-999.0,-999.0,47,-99.99,,,-99.99,open2300-1.11,2013-09-25 15:09:00,
2013-09-25 11:15:00,68.0,48.2,29.85,North,-999,-999.0,-999.0,49,-99.99,,,-99.99,open2300-1.11,2013-09-25 15:15:00,
2013-09-25 11:20:00,67.6,47.8,29.85,North,-999,-999.0,-999.0,49,-99.99,,,-99.99,open2300-1.11,2013-09-25 15:20:00,
2013-09-25 11:25:00,66.9,47.8,29.85,North,-999,-999.0,-999.0,50,-99.99,,,-99.99,open2300-1.11,2013-09-25 15:25:00,
2013-09-25 11:32:00,66.6,47.9,29.85,North,-999,-999.0,-999.0,51,-99.99,,,-99.99,open2300-1.11,2013-09-25 15:32:00,
2013-09-25 11:38:00,66.7,48.6,29.85,North,-999,-999.0,-999.0,52,-99.99,,,-99.99,open2300-1.11,2013-09-25 15:38:00,
2013-09-25 11:43:00,66.7,49.1,29.85,North,-999,-999.0,-999.0,53,-99.99,,,-99.99,open2300-1.11,2013-09-25 15:43:00,
2013-09-25 11:48:00,67.1,49.4,29.85,North,-999,-999.0,-999.0,53,-99.99,,,-99.99,open2300-1.11,2013-09-25 15:48:00,
2013-09-25 11:54:00,67.8,49.5,29.85,North,-999,-999.0,-999.0,52,-99.99,,,-99.99,open2300-1.11,2013-09-25 15:54:00,
2013-09-25 11:59:00,68.2,49.4,29.85,North,-999,-999.0,-999.0,51,-99.99,,,-99.99,open2300-1.11,2013-09-25 15:59:00,
2013-09-25 12:04:00,68.2,49.4,29.85,North,-999,-999.0,-999.0,51,-99.99,,,-99.99,open2300-1.11,2013-09-25 16:04:00,
2013-09-25 12:09:00,68.2,49.4,29.84,North,-999,-999.0,-999.0,51,-99.99,,,-99.99,open2300-1.11,2013-09-25 16:09:00,
2013-09-25 12:14:00,68.2,49.9,29.84,North,-999,-999.0,-999.0,52,-99.99,,,-99.99,open2300-1.11,2013-09-25 16:14:00,
2013-09-25 12:20:00,68.4,50.0,29.84,North,-999,-999.0,-999.0,52,-99.99,,,-99.99,open2300-1.11,2013-09-25 16:20:00,
2013-09-25 12:25:00,68.9,50.0,29.84,North,-999,-999.0,-999.0,51,-99.99,,,-99.99,open2300-1.11,2013-09-25 16:25:00,
2013-09-25 12:30:00,69.4,51.0,29.84,North,-999,-999.0,-999.0,52,-99.99,,,-99.99,open2300-1.11,2013-09-25 16:30:00,
2013-09-25 12:36:00,69.6,50.2,29.84,North,-999,-999.0,-999.0,50,-99.99,,,-99.99,open2300-1.11,2013-09-25 16:36:00,
2013-09-25 12:41:00,70.3,50.8,29.84,North,-999,-999.0,-999.0,50,-99.99,,,-99.99,open2300-1.11,2013-09-25 16:41:00,
2013-09-25 12:46:00,70.3,50.8,29.83,North,-999,-999.0,-999.0,50,-99.99,,,-99.99,open2300-1.11,2013-09-25 16:46:00,
2013-09-25 12:51:00,70.5,51.0,29.83,North,-999,-999.0,-999.0,50,-99.99,,,-99.99,open2300-1.11,2013-09-25 16:51:00,
2013-09-25 12:57:00,70.9,51.3,29.82,North,-999,-999.0,-999.0,50,-99.99,,,-99.99,open2300-1.11,2013-09-25 16:57:00,
2013-09-25 13:02:00,71.4,51.8,29.82,North,-999,-999.0,-999.0,50,-99.99,,,-99.99,open2300-1.11,2013-09-25 17:02:00,
2013-09-25 13:07:00,71.8,51.5,29.82,North,-999,-999.0,-999.0,49,-99.99,,,-99.99,open2300-1.11,2013-09-25 17:07:00,
2013-09-25 13:12:00,72.5,52.2,29.82,North,-999,-999.0,-999.0,49,-99.99,,,-99.99,open2300-1.11,2013-09-25 17:12:00,
2013-09-25 13:18:00,72.5,50.4,29.82,North,-999,-999.0,-999.0,46,-99.99,,,-99.99,open2300-1.11,2013-09-25 17:18:00,
2013-09-25 13:23:00,71.8,49.8,29.82,North,-999,-999.0,-999.0,46,-99.99,,,-99.99,open2300-1.11,2013-09-25 17:23:00,
2013-09-25 13:28:00,71.4,50.6,29.82,North,-999,-999.0,-999.0,48,-99.99,,,-99.99,open2300-1.11,2013-09-25 17:28:00,
2013-09-25 13:33:00,71.6,50.8,29.82,North,-999,-999.0,-999.0,48,-99.99,,,-99.99,open2300-1.11,2013-09-25 17:33:00,
2013-09-25 13:38:00,72.1,50.7,29.82,North,-999,-999.0,-999.0,47,-99.99,,,-99.99,open2300-1.11,2013-09-25 17:38:00,
2013-09-25 13:44:00,72.3,50.8,29.81,North,-999,-999.0,-999.0,47,-99.99,,,-99.99,open2300-1.11,2013-09-25 17:44:00,
2013-09-25 13:49:00,72.9,50.7,29.81,North,-999,-999.0,-999.0,46,-99.99,,,-99.99,open2300-1.11,2013-09-25 17:49:00,
2013-09-25 13:54:00,72.9,50.7,29.80,North,-999,-999.0,-999.0,46,-99.99,,,-99.99,open2300-1.11,2013-09-25 17:54:00,
2013-09-25 13:59:00,72.3,49.7,29.80,North,-999,-999.0,-999.0,45,-99.99,,,-99.99,open2300-1.11,2013-09-25 17:59:00,
2013-09-25 14:05:00,71.8,49.8,29.80,North,-999,-999.0,-999.0,46,-99.99,,,-99.99,open2300-1.11,2013-09-25 18:05:00,
2013-09-25 14:10:00,71.4,50.0,29.80,North,-999,-999.0,-999.0,47,-99.99,,,-99.99,open2300-1.11,2013-09-25 18:10:00,
2013-09-25 14:15:00,71.4,49.4,29.80,North,-999,-999.0,-999.0,46,-99.99,,,-99.99,open2300-1.11,2013-09-25 18:15:00,
2013-09-25 14:20:00,71.4,50.0,29.80,North,-999,-999.0,-999.0,47,-99.99,,,-99.99,open2300-1.11,2013-09-25 18:20:00,
2013-09-25 14:26:00,71.6,50.2,29.79,North,-999,-999.0,-999.0,47,-99.99,,,-99.99,open2300-1.11,2013-09-25 18:26:00,
2013-09-25 14:31:00,72.1,50.7,29.79,North,-999,-999.0,-999.0,47,-99.99,,,-99.99,open2300-1.11,2013-09-25 18:31:00,
2013-09-25 14:36:00,73.0,51.5,29.79,North,-999,-999.0,-999.0,47,-99.99,,,-99.99,open2300-1.11,2013-09-25 18:36:00,
2013-09-25 14:41:00,73.8,51.0,29.79,North,-999,-999.0,-999.0,45,-99.99,,,-99.99,open2300-1.11,2013-09-25 18:41:00,
2013-09-25 14:47:00,73.6,50.8,29.79,North,-999,-999.0,-999.0,45,-99.99,,,-99.99,open2300-1.11,2013-09-25 18:47:00,
2013-09-25 14:52:00,73.2,50.5,29.79,North,-999,-999.0,-999.0,45,-99.99,,,-99.99,open2300-1.11,2013-09-25 18:52:00,
2013-09-25 14:57:00,72.7,50.0,29.79,North,-999,-999.0,-999.0,45,-99.99,,,-99.99,open2300-1.11,2013-09-25 18:57:00,
2013-09-25 15:04:00,72.5,50.4,29.79,North,-999,-999.0,-999.0,46,-99.99,,,-99.99,open2300-1.11,2013-09-25 19:04:00,
2013-09-25 15:09:00,72.1,50.7,29.79,North,-999,-999.0,-999.0,47,-99.99,,,-99.99,open2300-1.11,2013-09-25 19:09:00,
2013-09-25 15:15:00,71.4,50.0,29.79,North,-999,-999.0,-999.0,47,-99.99,,,-99.99,open2300-1.11,2013-09-25 19:15:00,
2013-09-25 15:20:00,70.9,50.7,29.79,North,-999,-999.0,-999.0,49,-99.99,,,-99.99,open2300-1.11,2013-09-25 19:20:00,
2013-09-25 15:25:00,70.2,51.2,29.78,North,-999,-999.0,-999.0,51,-99.99,,,-99.99,open2300-1.11,2013-09-25 19:25:00,
2013-09-25 15:30:00,69.8,50.9,29.78,North,-999,-999.0,-999.0,51,-99.99,,,-99.99,open2300-1.11,2013-09-25 19:30:00,
2013-09-25 15:36:00,70.0,51.0,29.78,North,-999,-999.0,-999.0,51,-99.99,,,-99.99,open2300-1.11,2013-09-25 19:36:00,
2013-09-25 15:41:00,70.5,51.5,29.78,North,-999,-999.0,-999.0,51,-99.99,,,-99.99,open2300-1.11,2013-09-25 19:41:00,
2013-09-25 15:46:00,71.2,52.2,29.78,North,-999,-999.0,-999.0,51,-99.99,,,-99.99,open2300-1.11,2013-09-25 19:46:00,
2013-09-25 15:51:00,72.1,52.5,29.77,North,-999,-999.0,-999.0,50,-99.99,,,-99.99,open2300-1.11,2013-09-25 19:51:00,
2013-09-25 15:57:00,73.2,52.8,29.77,North,-999,-999.0,-999.0,49,-99.99,,,-99.99,open2300-1.11,2013-09-25 19:57:00,
2013-09-25 16:02:00,74.1,53.7,29.77,North,-999,-999.0,-999.0,49,-99.99,,,-99.99,open2300-1.11,2013-09-25 20:02:00,
2013-09-25 16:07:00,74.8,53.8,29.77,North,-999,-999.0,-999.0,48,-99.99,,,-99.99,open2300-1.11,2013-09-25 20:07:00,
2013-09-25 16:13:00,75.0,53.4,29.77,North,-999,-999.0,-999.0,47,-99.99,,,-99.99,open2300-1.11,2013-09-25 20:13:00,
2013-09-25 16:18:00,75.0,53.4,29.77,North,-999,-999.0,-999.0,47,-99.99,,,-99.99,open2300-1.11,2013-09-25 20:18:00,
2013-09-25 16:23:00,75.0,53.4,29.77,North,-999,-999.0,-999.0,47,-99.99,,,-99.99,open2300-1.11,2013-09-25 20:23:00,
2013-09-25 16:28:00,74.8,53.2,29.77,North,-999,-999.0,-999.0,47,-99.99,,,-99.99,open2300-1.11,2013-09-25 20:28:00,
2013-09-25 16:34:00,73.9,51.7,29.77,North,-999,-999.0,-999.0,46,-99.99,,,-99.99,open2300-1.11,2013-09-25 20:34:00,
2013-09-25 16:39:00,73.6,52.0,29.77,North,-999,-999.0,-999.0,47,-99.99,,,-99.99,open2300-1.11,2013-09-25 20:39:00,
2013-09-25 16:44:00,72.5,51.6,29.77,North,-999,-999.0,-999.0,48,-99.99,,,-99.99,open2300-1.11,2013-09-25 20:44:00,
2013-09-25 16:50:00,72.3,52.0,29.77,North,-999,-999.0,-999.0,49,-99.99,,,-99.99,open2300-1.11,2013-09-25 20:50:00,
2013-09-25 16:55:00,71.8,51.5,29.77,North,-999,-999.0,-999.0,49,-99.99,,,-99.99,open2300-1.11,2013-09-25 20:55:00,
2013-09-25 17:00:00,71.4,51.2,29.77,North,-999,-999.0,-999.0,49,-99.99,,,-99.99,open2300-1.11,2013-09-25 21:00:00,
2013-09-25 17:05:00,71.2,51.1,29.77,North,-999,-999.0,-999.0,49,-99.99,,,-99.99,open2300-1.11,2013-09-25 21:05:00,
2013-09-25 17:11:00,70.7,50.6,29.77,North,-999,-999.0,-999.0,49,-99.99,,,-99.99,open2300-1.11,2013-09-25 21:11:00,
2013-09-25 17:16:00,70.3,50.2,29.77,North,-999,-999.0,-999.0,49,-99.99,,,-99.99,open2300-1.11,2013-09-25 21:16:00,
2013-09-25 17:21:00,70.0,50.5,29.77,North,-999,-999.0,-999.0,50,-99.99,,,-99.99,open2300-1.11,2013-09-25 21:21:00,
2013-09-25 17:26:00,69.6,50.7,29.77,North,-999,-999.0,-999.0,51,-99.99,,,-99.99,open2300-1.11,2013-09-25 21:26:00,
2013-09-25 17:32:00,69.6,51.2,29.77,North,-999,-999.0,-999.0,52,-99.99,,,-99.99,open2300-1.11,2013-09-25 21:32:00,
2013-09-25 17:37:00,69.3,50.9,29.77,North,-999,-999.0,-999.0,52,-99.99,,,-99.99,open2300-1.11,2013-09-25 21:37:00,
2013-09-25 17:42:00,68.5,51.2,29.77,North,-999,-999.0,-999.0,54,-99.99,,,-99.99,open2300-1.11,2013-09-25 21:42:00,
2013-09-25 17:48:00,68.2,50.4,29.77,North,-999,-999.0,-999.0,53,-99.99,,,-99.99,open2300-1.11,2013-09-25 21:48:00,
2013-09-25 17:53:00,67.8,51.0,29.77,North,-999,-999.0,-999.0,55,-99.99,,,-99.99,open2300-1.11,2013-09-25 21:53:00,
2013-09-25 17:59:00,67.6,50.8,29.77,North,-999,-999.0,-999.0,55,-99.99,,,-99.99,open2300-1.11,2013-09-25 21:59:00,
2013-09-25 18:04:00,66.9,50.7,29.77,North,-999,-999.0,-999.0,56,-99.99,,,-99.99,open2300-1.11,2013-09-25 22:04:00,
2013-09-25 18:09:00,66.7,50.5,29.77,North,-999,-999.0,-999.0,56,-99.99,,,-99.99,open2300-1.11,2013-09-25 22:09:00,
2013-09-25 18:14:00,66.0,50.8,29.77,North,-999,-999.0,-999.0,58,-99.99,,,-99.99,open2300-1.11,2013-09-25 22:14:00,
2013-09-25 18:20:00,65.7,51.0,29.77,North,-999,-999.0,-999.0,59,-99.99,,,-99.99,open2300-1.11,2013-09-25 22:20:00,
2013-09-25 18:25:00,64.9,50.7,29.78,North,-999,-999.0,-999.0,60,-99.99,,,-99.99,open2300-1.11,2013-09-25 22:25:00,
2013-09-25 18:30:00,64.2,50.4,29.77,North,-999,-999.0,-999.0,61,-99.99,,,-99.99,open2300-1.11,2013-09-25 22:30:00,
2013-09-25 18:35:00,63.3,50.5,29.77,North,-999,-999.0,-999.0,63,-99.99,,,-99.99,open2300-1.11,2013-09-25 22:35:00,
2013-09-25 18:41:00,62.8,50.0,29.78,North,-999,-999.0,-999.0,63,-99.99,,,-99.99,open2300-1.11,2013-09-25 22:41:00,
2013-09-25 18:48:00,61.9,49.6,29.78,North,-999,-999.0,-999.0,64,-99.99,,,-99.99,open2300-1.11,2013-09-25 22:48:00,
2013-09-25 18:53:00,61.0,49.6,29.78,North,-999,-999.0,-999.0,66,-99.99,,,-99.99,open2300-1.11,2013-09-25 22:53:00,
2013-09-25 18:58:00,60.4,49.5,29.77,North,-999,-999.0,-999.0,67,-99.99,,,-99.99,open2300-1.11,2013-09-25 22:58:00,
2013-09-25 19:03:00,59.7,49.6,29.78,North,-999,-999.0,-999.0,69,-99.99,,,-99.99,open2300-1.11,2013-09-25 23:03:00,
2013-09-25 19:09:00,59.5,49.4,29.78,North,-999,-999.0,-999.0,69,-99.99,,,-99.99,open2300-1.11,2013-09-25 23:09:00,
2013-09-25 19:14:00,58.8,49.1,29.78,North,-999,-999.0,-999.0,70,-99.99,,,-99.99,open2300-1.11,2013-09-25 23:14:00,
2013-09-25 19:19:00,58.5,49.5,29.78,North,-999,-999.0,-999.0,72,-99.99,,,-99.99,open2300-1.11,2013-09-25 23:19:00,
2013-09-25 19:24:00,57.9,48.9,29.78,North,-999,-999.0,-999.0,73,-99.99,,,-99.99,open2300-1.11,2013-09-25 23:24:00,
2013-09-25 19:30:00,57.4,48.7,29.78,North,-999,-999.0,-999.0,73,-99.99,,,-99.99,open2300-1.11,2013-09-25 23:30:00,
2013-09-25 19:35:00,57.0,48.7,29.78,North,-999,-999.0,-999.0,74,-99.99,,,-99.99,open2300-1.11,2013-09-25 23:35:00,
2013-09-25 19:40:00,56.7,48.8,29.78,North,-999,-999.0,-999.0,75,-99.99,,,-99.99,open2300-1.11,2013-09-25 23:40:00,
2013-09-25 19:45:00,56.5,48.9,29.78,North,-999,-999.0,-999.0,76,-99.99,,,-99.99,open2300-1.11,2013-09-25 23:45:00,
2013-09-25 19:51:00,56.1,48.9,29.78,North,-999,-999.0,-999.0,77,-99.99,,,-99.99,open2300-1.11,2013-09-25 23:51:00,
2013-09-25 19:56:00,55.9,48.8,29.79,North,-999,-999.0,-999.0,77,-99.99,,,-99.99,open2300-1.11,2013-09-25 23:56:00,
2013-09-25 20:01:00,55.8,48.6,29.79,North,-999,-999.0,-999.0,77,-99.99,,,-99.99,open2300-1.11,2013-09-26 00:01:00,
2013-09-25 20:07:00,55.6,48.8,29.80,North,-999,-999.0,-999.0,78,-99.99,,,-99.99,open2300-1.11,2013-09-26 00:07:00,
2013-09-25 20:12:00,55.2,48.8,29.80,North,-999,-999.0,-999.0,79,-99.99,,,-99.99,open2300-1.11,2013-09-26 00:12:00,
2013-09-25 20:17:00,55.2,49.1,29.80,North,-999,-999.0,-999.0,80,-99.99,,,-99.99,open2300-1.11,2013-09-26 00:17:00,
2013-09-25 20:22:00,55.0,49.0,29.80,North,-999,-999.0,-999.0,80,-99.99,,,-99.99,open2300-1.11,2013-09-26 00:22:00,
2013-09-25 20:28:00,54.7,48.6,29.80,North,-999,-999.0,-999.0,80,-99.99,,,-99.99,open2300-1.11,2013-09-26 00:28:00,
2013-09-25 20:33:00,54.7,48.9,29.80,North,-999,-999.0,-999.0,81,-99.99,,,-99.99,open2300-1.11,2013-09-26 00:33:00,
2013-09-25 20:38:00,54.5,48.8,29.80,North,-999,-999.0,-999.0,81,-99.99,,,-99.99,open2300-1.11,2013-09-26 00:38:00,
2013-09-25 20:43:00,54.3,48.9,29.80,North,-999,-999.0,-999.0,82,-99.99,,,-99.99,open2300-1.11,2013-09-26 00:43:00,
2013-09-25 20:49:00,54.1,48.8,29.80,North,-999,-999.0,-999.0,82,-99.99,,,-99.99,open2300-1.11,2013-09-26 00:49:00,
2013-09-25 20:54:00,54.0,48.9,29.80,North,-999,-999.0,-999.0,83,-99.99,,,-99.99,open2300-1.11,2013-09-26 00:54:00,
2013-09-25 20:59:00,54.0,49.2,29.81,North,-999,-999.0,-999.0,84,-99.99,,,-99.99,open2300-1.11,2013-09-26 00:59:00,
2013-09-25 21:04:00,54.0,49.2,29.81,North,-999,-999.0,-999.0,84,-99.99,,,-99.99,open2300-1.11,2013-09-26 01:04:00,
2013-09-25 21:10:00,53.8,49.0,29.80,North,-999,-999.0,-999.0,84,-99.99,,,-99.99,open2300-1.11,2013-09-26 01:10:00,
2013-09-25 21:15:00,53.8,49.3,29.81,North,-999,-999.0,-999.0,85,-99.99,,,-99.99,open2300-1.11,2013-09-26 01:15:00,
2013-09-25 21:20:00,53.4,49.0,29.81,North,-999,-999.0,-999.0,86,-99.99,,,-99.99,open2300-1.11,2013-09-26 01:20:00,
2013-09-25 21:25:00,53.4,49.3,29.81,North,-999,-999.0,-999.0,86,-99.99,,,-99.99,open2300-1.11,2013-09-26 01:25:00,
2013-09-25 21:31:00,53.2,49.1,29.81,North,-999,-999.0,-999.0,86,-99.99,,,-99.99,open2300-1.11,2013-09-26 01:31:00,
2013-09-25 21:36:00,53.2,49.1,29.81,North,-999,-999.0,-999.0,86,-99.99,,,-99.99,open2300-1.11,2013-09-26 01:36:00,
2013-09-25 21:41:00,53.2,49.4,29.81,North,-999,-999.0,-999.0,87,-99.99,,,-99.99,open2300-1.11,2013-09-26 01:41:00,
2013-09-25 21:48:00,53.2,49.4,29.81,North,-999,-999.0,-999.0,87,-99.99,,,-99.99,open2300-1.11,2013-09-26 01:48:00,
2013-09-25 21:53:00,53.2,49.4,29.81,North,-999,-999.0,-999.0,87,-99.99,,,-99.99,open2300-1.11,2013-09-26 01:53:00,
2013-09-25 21:58:00,53.2,49.4,29.81,North,-999,-999.0,-999.0,87,-99.99,,,-99.99,open2300-1.11,2013-09-26 01:58:00,
2013-09-25 22:03:00,52.9,49.1,29.81,North,-999,-999.0,-999.0,87,-99.99,,,-99.99,open2300-1.11,2013-09-26 02:03:00,
2013-09-25 22:09:00,52.5,48.7,29.81,North,-999,-999.0,-999.0,87,-99.99,,,-99.99,open2300-1.11,2013-09-26 02:09:00,
2013-09-25 22:14:00,52.5,48.7,29.81,North,-999,-999.0,-999.0,87,-99.99,,,-99.99,open2300-1.11,2013-09-26 02:14:00,
2013-09-25 22:19:00,52.3,48.5,29.82,North,-999,-999.0,-999.0,87,-99.99,,,-99.99,open2300-1.11,2013-09-26 02:19:00,
2013-09-25 22:24:00,52.3,48.5,29.82,North,-999,-999.0,-999.0,87,-99.99,,,-99.99,open2300-1.11,2013-09-26 02:24:00,
2013-09-25 22:29:00,52.2,48.7,29.82,North,-999,-999.0,-999.0,88,-99.99,,,-99.99,open2300-1.11,2013-09-26 02:29:00,
2013-09-25 22:35:00,52.2,48.7,29.82,North,-999,-999.0,-999.0,88,-99.99,,,-99.99,open2300-1.11,2013-09-26 02:35:00,
2013-09-25 22:40:00,52.0,48.5,29.82,North,-999,-999.0,-999.0,88,-99.99,,,-99.99,open2300-1.11,2013-09-26 02:40:00,
2013-09-25 22:45:00,51.6,48.4,29.82,North,-999,-999.0,-999.0,89,-99.99,,,-99.99,open2300-1.11,2013-09-26 02:45:00,
2013-09-25 22:51:00,51.4,48.0,29.82,North,-999,-999.0,-999.0,88,-99.99,,,-99.99,open2300-1.11,2013-09-26 02:51:00,
2013-09-25 22:56:00,51.3,47.8,29.82,North,-999,-999.0,-999.0,88,-99.99,,,-99.99,open2300-1.11,2013-09-26 02:56:00,
2013-09-25 23:01:00,50.9,47.4,29.82,North,-999,-999.0,-999.0,88,-99.99,,,-99.99,open2300-1.11,2013-09-26 03:01:00,
2013-09-25 23:07:00,50.7,47.2,29.82,North,-999,-999.0,-999.0,88,-99.99,,,-99.99,open2300-1.11,2013-09-26 03:07:00,
2013-09-25 23:12:00,50.5,47.0,29.83,North,-999,-999.0,-999.0,88,-99.99,,,-99.99,open2300-1.11,2013-09-26 03:12:00,
2013-09-25 23:17:00,50.4,46.9,29.83,North,-999,-999.0,-999.0,88,-99.99,,,-99.99,open2300-1.11,2013-09-26 03:17:00,
2013-09-25 23:22:00,50.2,47.0,29.83,North,-999,-999.0,-999.0,89,-99.99,,,-99.99,open2300-1.11,2013-09-26 03:22:00,
2013-09-25 23:28:00,50.2,47.0,29.83,North,-999,-999.0,-999.0,89,-99.99,,,-99.99,open2300-1.11,2013-09-26 03:28:00,
2013-09-25 23:33:00,50.2,47.0,29.84,North,-999,-999.0,-999.0,89,-99.99,,,-99.99,open2300-1.11,2013-09-26 03:33:00,
2013-09-25 23:38:00,49.8,47.0,29.84,North,-999,-999.0,-999.0,90,-99.99,,,-99.99,open2300-1.11,2013-09-26 03:38:00,
2013-09-25 23:43:00,49.8,47.0,29.83,North,-999,-999.0,-999.0,90,-99.99,,,-99.99,open2300-1.11,2013-09-26 03:43:00,
2013-09-25 23:48:00,49.6,46.8,29.84,North,-999,-999.0,-999.0,90,-99.99,,,-99.99,open2300-1.11,2013-09-26 03:48:00,
2013-09-25 23:54:00,49.6,46.8,29.83,North,-999,-999.0,-999.0,90,-99.99,,,-99.99,open2300-1.11,2013-09-26 03:54:00,